sensor_id;sensor_type;location;lat;lon;timestamp;pressure;altitude;pressure_sealevel;temperature
79714;BMP280;69206;51.420;5.400;2023-05-16T00:01:10;101888.59;;;10.64
79714;BMP280;69206;51.420;5.400;2023-05-16T00:03:36;101887.88;;;10.62
79714;BMP280;69206;51.420;5.400;2023-05-16T00:06:03;101878.84;;;10.43
79714;BMP280;69206;51.420;5.400;2023-05-16T00:08:29;101891.88;;;10.44
79714;BMP280;69206;51.420;5.400;2023-05-16T00:10:55;101891.06;;;10.55
79714;BMP280;69206;51.420;5.400;2023-05-16T00:13:20;101889.81;;;10.48
79714;BMP280;69206;51.420;5.400;2023-05-16T00:15:50;101892.69;;;10.45
79714;BMP280;69206;51.420;5.400;2023-05-16T00:18:16;101894.91;;;10.38
79714;BMP280;69206;51.420;5.400;2023-05-16T00:20:42;101882.13;;;10.34
79714;BMP280;69206;51.420;5.400;2023-05-16T00:23:08;101854.03;;;10.23
79714;BMP280;69206;51.420;5.400;2023-05-16T00:25:33;101892.56;;;10.46
79714;BMP280;69206;51.420;5.400;2023-05-16T00:27:59;101884.75;;;10.34
79714;BMP280;69206;51.420;5.400;2023-05-16T00:30:24;101871.44;;;10.24
79714;BMP280;69206;51.420;5.400;2023-05-16T00:32:49;101877.03;;;10.20
79714;BMP280;69206;51.420;5.400;2023-05-16T00:35:15;101896.63;;;10.27
79714;BMP280;69206;51.420;5.400;2023-05-16T00:37:40;101893.72;;;10.19
79714;BMP280;69206;51.420;5.400;2023-05-16T00:40:06;101844.50;;;9.74
79714;BMP280;69206;51.420;5.400;2023-05-16T00:42:32;101886.94;;;10.04
79714;BMP280;69206;51.420;5.400;2023-05-16T00:44:57;101897.75;;;9.99
79714;BMP280;69206;51.420;5.400;2023-05-16T00:47:23;101887.41;;;9.85
79714;BMP280;69206;51.420;5.400;2023-05-16T00:49:48;101879.94;;;9.79
79714;BMP280;69206;51.420;5.400;2023-05-16T00:52:14;101899.84;;;9.82
79714;BMP280;69206;51.420;5.400;2023-05-16T00:54:40;101904.25;;;9.81
79714;BMP280;69206;51.420;5.400;2023-05-16T00:57:05;101897.97;;;9.71
79714;BMP280;69206;51.420;5.400;2023-05-16T00:59:31;101893.56;;;9.72
79714;BMP280;69206;51.420;5.400;2023-05-16T01:01:57;101902.06;;;9.63
79714;BMP280;69206;51.420;5.400;2023-05-16T01:04:23;101872.41;;;9.50
79714;BMP280;69206;51.420;5.400;2023-05-16T01:06:49;101902.69;;;9.54
79714;BMP280;69206;51.420;5.400;2023-05-16T01:09:14;101902.59;;;9.55
79714;BMP280;69206;51.420;5.400;2023-05-16T01:22:28;101904.66;;;9.25
79714;BMP280;69206;51.420;5.400;2023-05-16T01:27:52;101903.50;;;9.17
79714;BMP280;69206;51.420;5.400;2023-05-16T01:30:19;101910.19;;;9.21
79714;BMP280;69206;51.420;5.400;2023-05-16T01:32:44;101897.81;;;9.10
79714;BMP280;69206;51.420;5.400;2023-05-16T01:35:12;101910.19;;;9.21
79714;BMP280;69206;51.420;5.400;2023-05-16T01:38:11;101906.94;;;9.05
79714;BMP280;69206;51.420;5.400;2023-05-16T01:40:53;101918.63;;;8.99
79714;BMP280;69206;51.420;5.400;2023-05-16T01:43:43;101882.53;;;8.78
79714;BMP280;69206;51.420;5.400;2023-05-16T01:46:13;101921.56;;;8.95
79714;BMP280;69206;51.420;5.400;2023-05-16T01:51:59;101927.19;;;8.89
79714;BMP280;69206;51.420;5.400;2023-05-16T01:54:30;101926.78;;;8.95
79714;BMP280;69206;51.420;5.400;2023-05-16T01:56:56;101926.47;;;8.87
79714;BMP280;69206;51.420;5.400;2023-05-16T01:59:23;101926.09;;;8.79
79714;BMP280;69206;51.420;5.400;2023-05-16T02:01:49;101936.56;;;8.79
79714;BMP280;69206;51.420;5.400;2023-05-16T02:04:17;101935.25;;;8.72
79714;BMP280;69206;51.420;5.400;2023-05-16T02:06:42;101938.81;;;8.71
79714;BMP280;69206;51.420;5.400;2023-05-16T02:09:08;101944.91;;;8.71
79714;BMP280;69206;51.420;5.400;2023-05-16T02:11:33;101946.25;;;8.64
79714;BMP280;69206;51.420;5.400;2023-05-16T02:13:58;101948.19;;;8.61
79714;BMP280;69206;51.420;5.400;2023-05-16T02:16:24;101932.88;;;8.55
79714;BMP280;69206;51.420;5.400;2023-05-16T02:18:49;101937.19;;;8.70
79714;BMP280;69206;51.420;5.400;2023-05-16T02:21:15;101936.06;;;8.60
79714;BMP280;69206;51.420;5.400;2023-05-16T02:23:40;101909.56;;;8.38
79714;BMP280;69206;51.420;5.400;2023-05-16T02:26:05;101937.59;;;8.50
79714;BMP280;69206;51.420;5.400;2023-05-16T02:28:31;101941.31;;;8.46
79714;BMP280;69206;51.420;5.400;2023-05-16T02:30:57;101940.91;;;8.52
79714;BMP280;69206;51.420;5.400;2023-05-16T02:33:24;101943.00;;;8.47
79714;BMP280;69206;51.420;5.400;2023-05-16T02:35:51;101905.97;;;8.12
79714;BMP280;69206;51.420;5.400;2023-05-16T02:38:16;101944.69;;;8.34
79714;BMP280;69206;51.420;5.400;2023-05-16T02:40:42;101947.66;;;8.42
79714;BMP280;69206;51.420;5.400;2023-05-16T02:43:07;101921.84;;;8.09
79714;BMP280;69206;51.420;5.400;2023-05-16T02:45:33;101950.66;;;8.22
79714;BMP280;69206;51.420;5.400;2023-05-16T02:47:58;101959.25;;;8.24
79714;BMP280;69206;51.420;5.400;2023-05-16T02:50:24;101958.25;;;8.26
79714;BMP280;69206;51.420;5.400;2023-05-16T02:52:49;101966.75;;;8.30
79714;BMP280;69206;51.420;5.400;2023-05-16T02:55:15;101937.63;;;8.08
79714;BMP280;69206;51.420;5.400;2023-05-16T02:57:40;101975.16;;;8.21
79714;BMP280;69206;51.420;5.400;2023-05-16T03:00:06;101948.53;;;8.14
79714;BMP280;69206;51.420;5.400;2023-05-16T03:02:34;101981.47;;;8.31
79714;BMP280;69206;51.420;5.400;2023-05-16T03:05:00;101971.97;;;8.16
79714;BMP280;69206;51.420;5.400;2023-05-16T03:07:25;101987.81;;;8.13
79714;BMP280;69206;51.420;5.400;2023-05-16T03:09:51;101984.84;;;8.05
79714;BMP280;69206;51.420;5.400;2023-05-16T03:12:16;101996.25;;;8.04
79714;BMP280;69206;51.420;5.400;2023-05-16T03:14:41;101987.56;;;8.03
79714;BMP280;69206;51.420;5.400;2023-05-16T03:17:07;101998.03;;;8.17
79714;BMP280;69206;51.420;5.400;2023-05-16T03:19:33;101993.25;;;8.24
79714;BMP280;69206;51.420;5.400;2023-05-16T03:21:59;101991.09;;;8.02
79714;BMP280;69206;51.420;5.400;2023-05-16T03:24:24;101939.72;;;7.73
79714;BMP280;69206;51.420;5.400;2023-05-16T03:26:50;101997.31;;;8.00
79714;BMP280;69206;51.420;5.400;2023-05-16T03:29:16;101997.72;;;7.94
79714;BMP280;69206;51.420;5.400;2023-05-16T03:31:41;101991.00;;;7.90
79714;BMP280;69206;51.420;5.400;2023-05-16T03:34:07;101989.97;;;7.92
79714;BMP280;69206;51.420;5.400;2023-05-16T03:36:32;101993.72;;;7.88
79714;BMP280;69206;51.420;5.400;2023-05-16T03:38:57;101957.97;;;7.59
79714;BMP280;69206;51.420;5.400;2023-05-16T03:41:23;102005.34;;;7.83
79714;BMP280;69206;51.420;5.400;2023-05-16T03:43:50;102004.78;;;7.92
79714;BMP280;69206;51.420;5.400;2023-05-16T03:46:15;102021.69;;;7.86
79714;BMP280;69206;51.420;5.400;2023-05-16T03:48:40;102011.50;;;7.82
79714;BMP280;69206;51.420;5.400;2023-05-16T03:51:06;102017.56;;;7.82
79714;BMP280;69206;51.420;5.400;2023-05-16T03:53:31;102022.03;;;7.80
79714;BMP280;69206;51.420;5.400;2023-05-16T03:55:57;102014.09;;;7.82
79714;BMP280;69206;51.420;5.400;2023-05-16T03:58:23;102014.81;;;7.70
79714;BMP280;69206;51.420;5.400;2023-05-16T04:00:48;102024.34;;;7.71
79714;BMP280;69206;51.420;5.400;2023-05-16T04:03:14;102020.56;;;7.76
79714;BMP280;69206;51.420;5.400;2023-05-16T04:05:39;102019.88;;;7.73
79714;BMP280;69206;51.420;5.400;2023-05-16T04:08:04;102015.66;;;7.70
79714;BMP280;69206;51.420;5.400;2023-05-16T04:10:30;102028.09;;;7.67
79714;BMP280;69206;51.420;5.400;2023-05-16T04:12:56;102025.81;;;7.61
79714;BMP280;69206;51.420;5.400;2023-05-16T04:15:21;102024.63;;;7.66
79714;BMP280;69206;51.420;5.400;2023-05-16T04:17:46;102021.00;;;7.69
79714;BMP280;69206;51.420;5.400;2023-05-16T04:20:12;102033.84;;;7.72
79714;BMP280;69206;51.420;5.400;2023-05-16T04:22:37;102035.94;;;7.67
79714;BMP280;69206;51.420;5.400;2023-05-16T04:25:03;102029.19;;;7.63
79714;BMP280;69206;51.420;5.400;2023-05-16T04:27:28;102041.47;;;7.61
79714;BMP280;69206;51.420;5.400;2023-05-16T04:29:54;102046.69;;;7.61
79714;BMP280;69206;51.420;5.400;2023-05-16T04:32:20;102041.31;;;7.64
79714;BMP280;69206;51.420;5.400;2023-05-16T04:34:45;102047.41;;;7.64
79714;BMP280;69206;51.420;5.400;2023-05-16T04:37:12;102048.78;;;7.56
79714;BMP280;69206;51.420;5.400;2023-05-16T04:39:38;102046.53;;;7.64
79714;BMP280;69206;51.420;5.400;2023-05-16T04:42:04;102010.63;;;7.38
79714;BMP280;69206;51.420;5.400;2023-05-16T04:44:30;102049.00;;;7.67
79714;BMP280;69206;51.420;5.400;2023-05-16T04:46:55;102059.81;;;7.75
79714;BMP280;69206;51.420;5.400;2023-05-16T04:49:21;102060.00;;;7.72
79714;BMP280;69206;51.420;5.400;2023-05-16T04:51:47;101995.09;;;7.35
79714;BMP280;69206;51.420;5.400;2023-05-16T04:54:13;102071.94;;;7.91
79714;BMP280;69206;51.420;5.400;2023-05-16T04:56:39;102076.13;;;7.94
79714;BMP280;69206;51.420;5.400;2023-05-16T04:59:04;102064.81;;;7.93
79714;BMP280;69206;51.420;5.400;2023-05-16T05:01:30;102071.66;;;7.96
79714;BMP280;69206;51.420;5.400;2023-05-16T05:03:55;102070.97;;;8.08
79714;BMP280;69206;51.420;5.400;2023-05-16T05:06:20;102061.59;;;8.04
79714;BMP280;69206;51.420;5.400;2023-05-16T05:08:46;102068.81;;;8.14
79714;BMP280;69206;51.420;5.400;2023-05-16T05:11:12;102068.72;;;8.16
79714;BMP280;69206;51.420;5.400;2023-05-16T05:13:37;102070.97;;;8.22
79714;BMP280;69206;51.420;5.400;2023-05-16T05:16:03;102073.78;;;8.33
79714;BMP280;69206;51.420;5.400;2023-05-16T05:18:29;102074.13;;;8.41
79714;BMP280;69206;51.420;5.400;2023-05-16T05:20:55;102078.38;;;8.43
79714;BMP280;69206;51.420;5.400;2023-05-16T05:23:20;102078.09;;;8.48
79714;BMP280;69206;51.420;5.400;2023-05-16T05:25:46;102080.53;;;8.65
79714;BMP280;69206;51.420;5.400;2023-05-16T05:28:11;102072.28;;;8.71
79714;BMP280;69206;51.420;5.400;2023-05-16T05:30:36;102086.50;;;8.81
79714;BMP280;69206;51.420;5.400;2023-05-16T05:33:02;102077.50;;;8.99
79714;BMP280;69206;51.420;5.400;2023-05-16T05:35:27;102084.16;;;9.31
79714;BMP280;69206;51.420;5.400;2023-05-16T05:37:53;102089.00;;;9.63
79714;BMP280;69206;51.420;5.400;2023-05-16T05:40:18;102056.72;;;9.63
79714;BMP280;69206;51.420;5.400;2023-05-16T05:42:43;102087.59;;;9.97
79714;BMP280;69206;51.420;5.400;2023-05-16T05:45:09;102083.31;;;10.33
79714;BMP280;69206;51.420;5.400;2023-05-16T05:47:35;102073.56;;;10.48
79714;BMP280;69206;51.420;5.400;2023-05-16T05:50:02;102050.88;;;9.97
79714;BMP280;69206;51.420;5.400;2023-05-16T05:52:28;102095.81;;;10.05
79714;BMP280;69206;51.420;5.400;2023-05-16T05:54:53;102077.75;;;10.13
79714;BMP280;69206;51.420;5.400;2023-05-16T05:57:19;102092.03;;;10.09
79714;BMP280;69206;51.420;5.400;2023-05-16T05:59:45;102094.47;;;10.12
79714;BMP280;69206;51.420;5.400;2023-05-16T06:02:11;102102.34;;;10.12
79714;BMP280;69206;51.420;5.400;2023-05-16T06:04:36;102102.72;;;10.06
79714;BMP280;69206;51.420;5.400;2023-05-16T06:07:01;102091.63;;;10.15
79714;BMP280;69206;51.420;5.400;2023-05-16T06:09:27;102106.09;;;10.08
79714;BMP280;69206;51.420;5.400;2023-05-16T06:11:52;102105.75;;;10.00
79714;BMP280;69206;51.420;5.400;2023-05-16T06:14:18;102116.78;;;10.05
79714;BMP280;69206;51.420;5.400;2023-05-16T06:16:44;102115.47;;;10.12
79714;BMP280;69206;51.420;5.400;2023-05-16T06:19:09;102113.34;;;10.17
79714;BMP280;69206;51.420;5.400;2023-05-16T06:21:36;102117.63;;;10.18
79714;BMP280;69206;51.420;5.400;2023-05-16T06:24:02;102123.31;;;10.24
79714;BMP280;69206;51.420;5.400;2023-05-16T06:26:27;102119.56;;;10.28
79714;BMP280;69206;51.420;5.400;2023-05-16T06:28:52;102112.19;;;10.33
79714;BMP280;69206;51.420;5.400;2023-05-16T06:31:18;102107.19;;;10.43
79714;BMP280;69206;51.420;5.400;2023-05-16T06:33:43;102117.88;;;10.40
79714;BMP280;69206;51.420;5.400;2023-05-16T06:36:09;102119.56;;;10.53
79714;BMP280;69206;51.420;5.400;2023-05-16T06:38:34;102115.75;;;10.57
79714;BMP280;69206;51.420;5.400;2023-05-16T06:41:00;102123.97;;;10.53
79714;BMP280;69206;51.420;5.400;2023-05-16T06:43:25;102125.81;;;10.63
79714;BMP280;69206;51.420;5.400;2023-05-16T06:45:50;102104.63;;;10.54
79714;BMP280;69206;51.420;5.400;2023-05-16T06:48:17;102126.34;;;10.81
79714;BMP280;69206;51.420;5.400;2023-05-16T06:50:47;102127.78;;;10.84
79714;BMP280;69206;51.420;5.400;2023-05-16T06:53:13;102114.88;;;10.82
79714;BMP280;69206;51.420;5.400;2023-05-16T06:55:38;102122.78;;;10.82
79714;BMP280;69206;51.420;5.400;2023-05-16T06:58:04;102117.88;;;11.00
79714;BMP280;69206;51.420;5.400;2023-05-16T07:00:29;102121.75;;;11.20
79714;BMP280;69206;51.420;5.400;2023-05-16T07:02:55;102122.44;;;11.22
79714;BMP280;69206;51.420;5.400;2023-05-16T07:05:20;102118.75;;;11.24
79714;BMP280;69206;51.420;5.400;2023-05-16T07:07:46;102118.13;;;11.44
79714;BMP280;69206;51.420;5.400;2023-05-16T07:10:13;102128.69;;;11.55
79714;BMP280;69206;51.420;5.400;2023-05-16T07:12:40;102090.22;;;11.54
79714;BMP280;69206;51.420;5.400;2023-05-16T07:15:06;102129.47;;;11.68
79714;BMP280;69206;51.420;5.400;2023-05-16T07:17:32;102130.84;;;11.50
79714;BMP280;69206;51.420;5.400;2023-05-16T07:19:57;102096.00;;;11.36
79714;BMP280;69206;51.420;5.400;2023-05-16T07:22:22;102129.34;;;11.35
79714;BMP280;69206;51.420;5.400;2023-05-16T07:24:48;102136.97;;;11.38
79714;BMP280;69206;51.420;5.400;2023-05-16T07:27:13;102125.78;;;11.36
79714;BMP280;69206;51.420;5.400;2023-05-16T07:29:40;102140.06;;;11.56
79714;BMP280;69206;51.420;5.400;2023-05-16T07:32:05;102138.47;;;11.77
79714;BMP280;69206;51.420;5.400;2023-05-16T07:34:31;102133.66;;;11.94
79714;BMP280;69206;51.420;5.400;2023-05-16T07:36:56;102123.63;;;11.99
79714;BMP280;69206;51.420;5.400;2023-05-16T07:39:22;102130.97;;;11.83
79714;BMP280;69206;51.420;5.400;2023-05-16T07:41:47;102131.59;;;11.98
79714;BMP280;69206;51.420;5.400;2023-05-16T07:44:12;102131.97;;;11.93
79714;BMP280;69206;51.420;5.400;2023-05-16T07:46:38;102125.69;;;11.72
79714;BMP280;69206;51.420;5.400;2023-05-16T07:49:03;102128.97;;;11.87
79714;BMP280;69206;51.420;5.400;2023-05-16T07:51:29;102129.47;;;12.03
79714;BMP280;69206;51.420;5.400;2023-05-16T07:53:54;102134.03;;;12.23
79714;BMP280;69206;51.420;5.400;2023-05-16T07:56:20;102133.13;;;12.46
79714;BMP280;69206;51.420;5.400;2023-05-16T07:58:47;102137.78;;;12.64
79714;BMP280;69206;51.420;5.400;2023-05-16T08:01:13;102143.31;;;12.61
79714;BMP280;69206;51.420;5.400;2023-05-16T08:03:38;102130.50;;;12.79
79714;BMP280;69206;51.420;5.400;2023-05-16T08:06:04;102141.34;;;13.07
79714;BMP280;69206;51.420;5.400;2023-05-16T08:08:29;102148.19;;;12.99
79714;BMP280;69206;51.420;5.400;2023-05-16T08:10:55;102141.63;;;12.82
79714;BMP280;69206;51.420;5.400;2023-05-16T08:13:20;102149.91;;;13.31
79714;BMP280;69206;51.420;5.400;2023-05-16T08:15:46;102151.25;;;13.26
79714;BMP280;69206;51.420;5.400;2023-05-16T08:18:13;102111.03;;;13.44
79714;BMP280;69206;51.420;5.400;2023-05-16T08:20:39;102138.97;;;14.68
79714;BMP280;69206;51.420;5.400;2023-05-16T08:23:05;102139.03;;;14.96
79714;BMP280;69206;51.420;5.400;2023-05-16T08:25:31;102130.84;;;15.47
79714;BMP280;69206;51.420;5.400;2023-05-16T08:27:56;102128.81;;;15.87
79714;BMP280;69206;51.420;5.400;2023-05-16T08:30:22;102136.94;;;15.66
79714;BMP280;69206;51.420;5.400;2023-05-16T08:32:48;102132.28;;;16.60
79714;BMP280;69206;51.420;5.400;2023-05-16T08:35:13;102134.38;;;16.57
79714;BMP280;69206;51.420;5.400;2023-05-16T08:37:39;102115.72;;;16.76
79714;BMP280;69206;51.420;5.400;2023-05-16T08:40:09;102105.34;;;17.60
79714;BMP280;69206;51.420;5.400;2023-05-16T08:42:35;102101.56;;;17.20
79714;BMP280;69206;51.420;5.400;2023-05-16T08:45:00;102104.34;;;17.35
79714;BMP280;69206;51.420;5.400;2023-05-16T08:47:30;102096.31;;;18.77
79714;BMP280;69206;51.420;5.400;2023-05-16T08:49:56;102089.47;;;18.35
79714;BMP280;69206;51.420;5.400;2023-05-16T08:52:25;102049.63;;;18.75
79714;BMP280;69206;51.420;5.400;2023-05-16T08:54:53;102051.31;;;20.31
79714;BMP280;69206;51.420;5.400;2023-05-16T08:57:19;102077.53;;;21.09
79714;BMP280;69206;51.420;5.400;2023-05-16T08:59:45;102091.75;;;20.12
79714;BMP280;69206;51.420;5.400;2023-05-16T09:02:11;102087.78;;;20.38
79714;BMP280;69206;51.420;5.400;2023-05-16T09:04:37;102102.66;;;18.76
79714;BMP280;69206;51.420;5.400;2023-05-16T09:07:02;102094.88;;;18.17
79714;BMP280;69206;51.420;5.400;2023-05-16T09:09:28;102104.00;;;18.96
79714;BMP280;69206;51.420;5.400;2023-05-16T09:11:55;102101.47;;;19.42
79714;BMP280;69206;51.420;5.400;2023-05-16T09:14:20;102090.03;;;19.88
79714;BMP280;69206;51.420;5.400;2023-05-16T09:17:02;102053.84;;;19.47
79714;BMP280;69206;51.420;5.400;2023-05-16T09:19:41;102093.78;;;18.52
79714;BMP280;69206;51.420;5.400;2023-05-16T09:22:12;102103.81;;;17.15
79714;BMP280;69206;51.420;5.400;2023-05-16T09:24:44;102114.53;;;17.05
79714;BMP280;69206;51.420;5.400;2023-05-16T09:27:12;102082.75;;;17.81
79714;BMP280;69206;51.420;5.400;2023-05-16T09:29:41;102109.50;;;18.29
79714;BMP280;69206;51.420;5.400;2023-05-16T09:32:14;102071.38;;;18.54
79714;BMP280;69206;51.420;5.400;2023-05-16T09:34:44;102094.97;;;19.53
79714;BMP280;69206;51.420;5.400;2023-05-16T09:37:12;102081.13;;;20.04
79714;BMP280;69206;51.420;5.400;2023-05-16T09:39:39;102082.59;;;19.60
79714;BMP280;69206;51.420;5.400;2023-05-16T09:42:10;102098.47;;;17.49
79714;BMP280;69206;51.420;5.400;2023-05-16T09:44:36;102123.63;;;16.41
79714;BMP280;69206;51.420;5.400;2023-05-16T09:47:02;102091.97;;;16.03
79714;BMP280;69206;51.420;5.400;2023-05-16T09:49:27;102103.38;;;17.37
79714;BMP280;69206;51.420;5.400;2023-05-16T09:51:53;102100.31;;;17.74
79714;BMP280;69206;51.420;5.400;2023-05-16T09:54:32;102106.22;;;17.60
79714;BMP280;69206;51.420;5.400;2023-05-16T09:56:57;102069.94;;;18.18
79714;BMP280;69206;51.420;5.400;2023-05-16T09:59:23;102080.72;;;19.06
79714;BMP280;69206;51.420;5.400;2023-05-16T10:01:49;102086.53;;;19.18
79714;BMP280;69206;51.420;5.400;2023-05-16T10:04:15;102097.47;;;18.09
79714;BMP280;69206;51.420;5.400;2023-05-16T10:06:41;102083.47;;;16.98
79714;BMP280;69206;51.420;5.400;2023-05-16T10:09:10;102119.88;;;16.61
79714;BMP280;69206;51.420;5.400;2023-05-16T10:11:38;102123.50;;;15.87
79714;BMP280;69206;51.420;5.400;2023-05-16T10:14:06;102088.91;;;15.52
79714;BMP280;69206;51.420;5.400;2023-05-16T10:16:32;102123.28;;;15.71
79714;BMP280;69206;51.420;5.400;2023-05-16T10:18:59;102114.16;;;16.29
79714;BMP280;69206;51.420;5.400;2023-05-16T10:21:27;102110.56;;;15.84
79714;BMP280;69206;51.420;5.400;2023-05-16T10:23:56;102113.22;;;16.30
79714;BMP280;69206;51.420;5.400;2023-05-16T10:26:23;102101.13;;;17.75
79714;BMP280;69206;51.420;5.400;2023-05-16T10:28:49;102003.59;;;16.66
79714;BMP280;69206;51.420;5.400;2023-05-16T10:31:15;102081.94;;;16.95
79714;BMP280;69206;51.420;5.400;2023-05-16T10:33:41;102026.41;;;18.11
79714;BMP280;69206;51.420;5.400;2023-05-16T10:36:10;102088.13;;;18.47
79714;BMP280;69206;51.420;5.400;2023-05-16T10:38:37;102079.25;;;19.74
79714;BMP280;69206;51.420;5.400;2023-05-16T10:41:03;102069.03;;;20.24
79714;BMP280;69206;51.420;5.400;2023-05-16T10:43:29;102081.28;;;20.78
79714;BMP280;69206;51.420;5.400;2023-05-16T10:45:56;102077.03;;;19.85
79714;BMP280;69206;51.420;5.400;2023-05-16T10:48:32;102083.53;;;18.07
79714;BMP280;69206;51.420;5.400;2023-05-16T10:50:58;102098.06;;;16.67
79714;BMP280;69206;51.420;5.400;2023-05-16T10:53:32;102100.25;;;16.27
79714;BMP280;69206;51.420;5.400;2023-05-16T11:19:30;102061.72;;;18.77
79714;BMP280;69206;51.420;5.400;2023-05-16T11:25:01;102099.97;;;17.09
79714;BMP280;69206;51.420;5.400;2023-05-16T11:27:45;102090.25;;;18.27
79714;BMP280;69206;51.420;5.400;2023-05-16T11:30:12;102097.53;;;19.15
79714;BMP280;69206;51.420;5.400;2023-05-16T11:32:39;102091.13;;;20.99
79714;BMP280;69206;51.420;5.400;2023-05-16T11:35:07;102076.25;;;21.48
79714;BMP280;69206;51.420;5.400;2023-05-16T11:37:33;102086.53;;;20.49
79714;BMP280;69206;51.420;5.400;2023-05-16T11:40:02;102042.56;;;19.84
79714;BMP280;69206;51.420;5.400;2023-05-16T11:42:34;102063.66;;;19.55
79714;BMP280;69206;51.420;5.400;2023-05-16T11:45:08;102081.88;;;18.22
79714;BMP280;69206;51.420;5.400;2023-05-16T11:47:38;102096.97;;;18.47
79714;BMP280;69206;51.420;5.400;2023-05-16T11:50:13;102084.53;;;18.96
79714;BMP280;69206;51.420;5.400;2023-05-16T11:52:39;102084.03;;;18.84
79714;BMP280;69206;51.420;5.400;2023-05-16T11:55:08;102037.47;;;19.20
79714;BMP280;69206;51.420;5.400;2023-05-16T11:57:38;102055.19;;;19.90
79714;BMP280;69206;51.420;5.400;2023-05-16T12:00:20;102096.84;;;19.91
79714;BMP280;69206;51.420;5.400;2023-05-16T12:02:47;102090.44;;;20.08
79714;BMP280;69206;51.420;5.400;2023-05-16T12:05:14;102090.69;;;18.96
79714;BMP280;69206;51.420;5.400;2023-05-16T12:07:42;102100.03;;;19.16
79714;BMP280;69206;51.420;5.400;2023-05-16T12:10:10;102083.84;;;19.26
79714;BMP280;69206;51.420;5.400;2023-05-16T12:12:37;102090.81;;;20.27
79714;BMP280;69206;51.420;5.400;2023-05-16T12:15:05;102096.66;;;18.66
79714;BMP280;69206;51.420;5.400;2023-05-16T12:17:32;102082.41;;;17.84
79714;BMP280;69206;51.420;5.400;2023-05-16T12:19:57;102098.44;;;18.08
79714;BMP280;69206;51.420;5.400;2023-05-16T12:22:24;102120.50;;;17.67
79714;BMP280;69206;51.420;5.400;2023-05-16T12:24:50;102127.16;;;17.28
79714;BMP280;69206;51.420;5.400;2023-05-16T12:27:22;102098.97;;;16.75
79714;BMP280;69206;51.420;5.400;2023-05-16T12:29:48;102120.50;;;16.90
79714;BMP280;69206;51.420;5.400;2023-05-16T12:32:17;102120.59;;;17.15
79714;BMP280;69206;51.420;5.400;2023-05-16T12:34:48;102109.22;;;17.48
79714;BMP280;69206;51.420;5.400;2023-05-16T12:37:15;102115.53;;;18.39
79714;BMP280;69206;51.420;5.400;2023-05-16T12:39:40;102113.25;;;18.60
79714;BMP280;69206;51.420;5.400;2023-05-16T12:42:06;102125.66;;;17.43
79714;BMP280;69206;51.420;5.400;2023-05-16T12:44:34;102131.25;;;16.71
79714;BMP280;69206;51.420;5.400;2023-05-16T12:47:00;102137.72;;;16.59
79714;BMP280;69206;51.420;5.400;2023-05-16T12:49:26;102142.47;;;16.38
79714;BMP280;69206;51.420;5.400;2023-05-16T12:51:53;102143.47;;;16.27
79714;BMP280;69206;51.420;5.400;2023-05-16T12:54:20;102145.38;;;16.35
79714;BMP280;69206;51.420;5.400;2023-05-16T12:56:47;102145.16;;;16.19
79714;BMP280;69206;51.420;5.400;2023-05-16T12:59:13;102143.88;;;16.59
79714;BMP280;69206;51.420;5.400;2023-05-16T13:01:39;102101.56;;;16.85
79714;BMP280;69206;51.420;5.400;2023-05-16T13:04:05;102134.28;;;16.76
79714;BMP280;69206;51.420;5.400;2023-05-16T13:06:31;102128.06;;;16.40
79714;BMP280;69206;51.420;5.400;2023-05-16T13:08:57;102142.00;;;16.69
79714;BMP280;69206;51.420;5.400;2023-05-16T13:11:23;102144.75;;;16.50
79714;BMP280;69206;51.420;5.400;2023-05-16T13:13:48;102150.41;;;16.38
79714;BMP280;69206;51.420;5.400;2023-05-16T13:16:14;102144.09;;;16.12
79714;BMP280;69206;51.420;5.400;2023-05-16T13:18:39;102144.09;;;16.12
79714;BMP280;69206;51.420;5.400;2023-05-16T13:21:05;102154.31;;;16.34
79714;BMP280;69206;51.420;5.400;2023-05-16T13:23:31;102152.41;;;16.26
79714;BMP280;69206;51.420;5.400;2023-05-16T13:25:57;102157.66;;;16.36
79714;BMP280;69206;51.420;5.400;2023-05-16T13:28:23;102150.25;;;16.39
79714;BMP280;69206;51.420;5.400;2023-05-16T13:30:49;102161.00;;;16.01
79714;BMP280;69206;51.420;5.400;2023-05-16T13:33:15;102156.69;;;15.91
79714;BMP280;69206;51.420;5.400;2023-05-16T13:35:40;102160.06;;;15.74
79714;BMP280;69206;51.420;5.400;2023-05-16T13:38:06;102172.84;;;16.07
79714;BMP280;69206;51.420;5.400;2023-05-16T13:40:31;102137.13;;;16.11
79714;BMP280;69206;51.420;5.400;2023-05-16T13:42:57;102166.31;;;16.38
79714;BMP280;69206;51.420;5.400;2023-05-16T13:45:22;102162.00;;;16.37
79714;BMP280;69206;51.420;5.400;2023-05-16T13:47:48;102162.63;;;16.12
79714;BMP280;69206;51.420;5.400;2023-05-16T13:50:13;102165.16;;;16.04
79714;BMP280;69206;51.420;5.400;2023-05-16T13:52:39;102163.06;;;15.98
79714;BMP280;69206;51.420;5.400;2023-05-16T13:55:05;102137.47;;;15.89
79714;BMP280;69206;51.420;5.400;2023-05-16T13:57:31;102132.22;;;15.70
79714;BMP280;69206;51.420;5.400;2023-05-16T13:59:57;102183.19;;;15.72
79714;BMP280;69206;51.420;5.400;2023-05-16T14:02:23;102182.50;;;15.70
79714;BMP280;69206;51.420;5.400;2023-05-16T14:04:50;102176.06;;;15.82
79714;BMP280;69206;51.420;5.400;2023-05-16T14:07:16;102175.94;;;15.74
79714;BMP280;69206;51.420;5.400;2023-05-16T14:09:42;102180.53;;;16.00
79714;BMP280;69206;51.420;5.400;2023-05-16T14:12:08;102171.38;;;16.22
79714;BMP280;69206;51.420;5.400;2023-05-16T14:14:34;102135.75;;;16.07
79714;BMP280;69206;51.420;5.400;2023-05-16T14:16:59;102176.13;;;16.55
79714;BMP280;69206;51.420;5.400;2023-05-16T14:19:25;102166.06;;;16.31
79714;BMP280;69206;51.420;5.400;2023-05-16T14:21:50;102166.59;;;16.35
79714;BMP280;69206;51.420;5.400;2023-05-16T14:24:16;102174.38;;;16.00
79714;BMP280;69206;51.420;5.400;2023-05-16T14:26:41;102162.56;;;15.85
79714;BMP280;69206;51.420;5.400;2023-05-16T14:29:07;102175.09;;;16.02
79714;BMP280;69206;51.420;5.400;2023-05-16T14:31:32;102145.31;;;15.24
79714;BMP280;69206;51.420;5.400;2023-05-16T14:34:00;102183.59;;;15.29
79714;BMP280;69206;51.420;5.400;2023-05-16T14:36:25;102180.00;;;15.40
79714;BMP280;69206;51.420;5.400;2023-05-16T14:38:50;102176.22;;;15.71
79714;BMP280;69206;51.420;5.400;2023-05-16T14:41:16;102182.94;;;15.75